Bookmark and Share
Track history (hours):
 

Scf Explorer

More information available from US FCC via Universal Licensing System and Coast Guard Vessel Documentation Center.

Last reported at 2014-Apr-16 03:16 UTC. Time now 2014-Apr-16 16:12 UTC.
Position N 29°25' W 094°50'.

Length 35 m; draft 2.3 m.

Type: Ship (hazmat cat B). MMSI: 367330620.

NotesDate/timePositionNaut miles runAvg speedWind from/ knotsBaromVisibWave heightAir tempDewpointWater temp
2014-Apr-16 03:16N 29°25' W 094°50'6 8.0
2014-Apr-16 02:33N 29°30' W 094°52'8 7.5
2014-Apr-16 01:33N 29°36' W 094°57'7 6.6
2014-Apr-16 00:33N 29°42' W 095°01'5 5.0
2014-Apr-15 23:31N 29°45' W 095°06'4 0.1
2014-Apr-14 14:30N 29°45' W 095°11'4 0.2
2014-Apr-13 21:19N 29°46' W 095°06'0 0.0
2014-Apr-13 20:10N 29°46' W 095°06'0 0.1
2014-Apr-13 15:30N 29°46' W 095°06'5 4.6
2014-Apr-13 14:30N 29°44' W 095°01'5 0.1
2014-Apr-11 17:23N 29°46' W 095°06'0 0.0
2014-Apr-11 16:28N 29°46' W 095°06'0 0.0
2014-Apr-11 14:32N 29°46' W 095°06'0 0.0
2014-Apr-11 13:32N 29°46' W 095°06'0 0.0
2014-Apr-11 12:33N 29°46' W 095°06'0 0.0
2014-Apr-11 00:28N 29°46' W 095°06'0 0.0
2014-Apr-10 23:28N 29°46' W 095°06'0 0.0
2014-Apr-10 20:31N 29°46' W 095°06'0 0.0
2014-Apr-10 19:33N 29°46' W 095°06'0 0.0
2014-Apr-10 18:20N 29°46' W 095°06'0 0.0
2014-Apr-10 17:30N 29°46' W 095°06'0 0.0
2014-Apr-10 16:33N 29°46' W 095°06'0 0.0
2014-Apr-10 15:20N 29°46' W 095°06'0 0.0
2014-Apr-10 13:15N 29°46' W 095°06'0 0.0
2014-Apr-10 12:10N 29°46' W 095°06'0 0.0
2014-Apr-10 10:14N 29°46' W 095°06'0 0.0
2014-Apr-10 09:25N 29°46' W 095°06'0 0.0
2014-Apr-10 08:33N 29°46' W 095°06'0 0.0
2014-Apr-10 07:13N 29°46' W 095°06'0 0.0
2014-Apr-10 06:31N 29°46' W 095°06'0 0.0
2014-Apr-10 05:21N 29°46' W 095°06'0 0.0
2014-Apr-10 04:33N 29°46' W 095°06'0 0.0
2014-Apr-10 03:33N 29°46' W 095°06'0 0.0
2014-Apr-10 02:33N 29°46' W 095°06'0 0.0
2014-Apr-10 01:04N 29°46' W 095°06'0 0.0
2014-Apr-10 00:31N 29°46' W 095°06'0 0.0
2014-Apr-09 23:33N 29°46' W 095°06'0 0.2
2014-Apr-09 22:09N 29°46' W 095°06'2 3.8
2014-Apr-09 21:33N 29°47' W 095°04'0 0.0
2014-Apr-09 20:31N 29°47' W 095°04'0 0.0
2014-Apr-09 19:32N 29°47' W 095°04'1 1.1
2014-Apr-09 18:33N 29°46' W 095°05'4 4.4
2014-Apr-09 17:33N 29°43' W 095°01'7 7.1
2014-Apr-09 16:33N 29°37' W 094°57'8 8.0
2014-Apr-09 15:33N 29°30' W 094°52'12 5.1
2014-Apr-09 13:05N 29°18' W 094°53'  

Dump ship's entire track history

sailing weather and tide predictions

Scf Explorer — WDE2863 — position and weather